Time;durP1;ratioP1;P1;durP2;ratioP2;P2;SDS_P1;SDS_P2;PMS_P1;PMS_P2;Temp;Humidity;BMP_temperature;BMP_pressure;BME280_temperature;BME280_humidity;BME280_pressure;Samples;Min_cycle;Max_cycle;Signal;HPM_P1;HPM_P2
2023/10/09 00:01:01;;;;;;;0.20;0.20;;;15.90;63.00;;;;;;6213939;23;20171;-82
2023/10/09 00:03:31;;;;;;;0.27;0.27;;;15.90;62.90;;;;;;6193908;23;20238;-85
2023/10/09 00:06:04;;;;;;;0.43;0.43;;;15.90;62.60;;;;;;6214260;23;20355;-83
2023/10/09 00:08:37;;;;;;;0.30;0.30;;;15.90;62.50;;;;;;6213689;23;20535;-84
2023/10/09 00:11:16;;;;;;;0.93;0.50;;;15.90;62.20;;;;;;6213870;23;20562;-85
2023/10/09 00:13:52;;;;;;;0.27;0.27;;;15.80;61.90;;;;;;6213971;23;20238;-83
2023/10/09 00:16:32;;;;;;;0.23;0.23;;;15.80;61.90;;;;;;6213552;23;20159;-83
2023/10/09 00:19:13;;;;;;;0.20;0.20;;;15.80;61.40;;;;;;6213658;23;20522;-84
2023/10/09 00:21:42;;;;;;;0.30;0.30;;;15.70;61.10;;;;;;6214780;23;20187;-87
2023/10/09 00:24:16;;;;;;;0.30;0.30;;;15.80;61.20;;;;;;6215035;23;20599;-84
2023/10/09 00:26:46;;;;;;;1.53;0.83;;;15.80;60.80;;;;;;6214707;23;20654;-82
2023/10/09 00:29:21;;;;;;;0.20;0.20;;;15.70;60.70;;;;;;6216449;23;20598;-84
2023/10/09 00:31:55;;;;;;;0.30;0.30;;;15.70;60.10;;;;;;6215152;23;20616;-85
2023/10/09 00:34:26;;;;;;;0.50;0.50;;;15.60;61.00;;;;;;6216809;23;20609;-86
2023/10/09 00:36:55;;;;;;;0.73;0.50;;;15.60;60.00;;;;;;6228470;23;20143;-85
2023/10/09 00:39:33;;;;;;;0.40;0.40;;;15.60;59.70;;;;;;6242051;23;20151;-84
2023/10/09 00:42:03;;;;;;;0.30;0.30;;;15.60;59.70;;;;;;6238772;23;20179;-85
2023/10/09 00:44:38;;;;;;;0.20;0.20;;;15.60;59.40;;;;;;6242354;23;20158;-85
2023/10/09 00:47:20;;;;;;;1.03;0.70;;;15.60;59.40;;;;;;6241239;23;20226;-82
2023/10/09 00:49:59;;;;;;;0.23;0.23;;;15.60;59.40;;;;;;6226967;23;20171;-84
2023/10/09 00:52:36;;;;;;;0.20;0.20;;;15.50;59.10;;;;;;6231048;23;20206;-84
2023/10/09 00:55:13;;;;;;;0.40;0.40;;;15.50;59.10;;;;;;6224796;23;20209;-85
2023/10/09 00:57:50;;;;;;;0.27;0.27;;;15.50;58.50;;;;;;6219016;23;20194;-83
2023/10/09 01:03:18;;;;;;;0.33;0.33;;;15.40;57.80;;;;;;6212003;23;20171;-84
2023/10/09 01:05:58;;;;;;;0.40;0.40;;;15.40;58.00;;;;;;6214361;23;20162;-84
2023/10/09 01:08:30;;;;;;;0.20;0.20;;;15.40;57.70;;;;;;6214432;23;20210;-83
2023/10/09 01:11:09;;;;;;;0.83;0.50;;;15.40;57.40;;;;;;6212814;23;20187;-85
2023/10/09 01:13:52;;;;;;;0.20;0.20;;;15.40;57.30;;;;;;6214341;23;20161;-83
2023/10/09 01:16:25;;;;;;;0.20;0.20;;;15.40;57.30;;;;;;6213776;23;20159;-84
2023/10/09 01:18:57;;;;;;;0.47;0.47;;;15.30;56.80;;;;;;6213756;23;20610;-84
2023/10/09 01:21:26;;;;;;;0.20;0.20;;;15.40;57.10;;;;;;6213356;23;20508;-84
2023/10/09 01:24:04;;;;;;;0.20;0.20;;;15.30;56.90;;;;;;6213824;23;20174;-83
2023/10/09 01:26:39;;;;;;;0.40;0.40;;;15.30;56.40;;;;;;6212998;23;20637;-84
2023/10/09 01:29:12;;;;;;;0.20;0.20;;;15.20;56.00;;;;;;6212688;23;20162;-84
2023/10/09 01:31:44;;;;;;;0.30;0.30;;;15.20;56.00;;;;;;6213043;23;20561;-86
2023/10/09 01:34:14;;;;;;;0.20;0.20;;;15.20;56.20;;;;;;6214027;23;20254;-84
2023/10/09 01:36:43;;;;;;;0.50;0.50;;;15.10;56.00;;;;;;6213800;23;20172;-85
2023/10/09 01:39:23;;;;;;;1.17;1.03;;;15.10;56.10;;;;;;6212073;23;20173;-83
2023/10/09 01:41:58;;;;;;;0.40;0.40;;;15.10;56.30;;;;;;6213277;23;20201;-85
2023/10/09 01:44:30;;;;;;;0.20;0.20;;;15.10;56.00;;;;;;6213737;23;20162;-84
2023/10/09 01:46:59;;;;;;;0.40;0.40;;;15.00;55.70;;;;;;6212863;23;20187;-84
2023/10/09 01:49:31;;;;;;;0.73;0.40;;;15.00;56.10;;;;;;6213442;23;20640;-84
2023/10/09 01:52:06;;;;;;;0.30;0.30;;;15.00;56.20;;;;;;6212743;23;20171;-85
2023/10/09 01:54:41;;;;;;;0.50;0.50;;;15.00;56.00;;;;;;6212597;23;20193;-84
2023/10/09 01:57:11;;;;;;;0.57;0.57;;;15.00;56.00;;;;;;6212308;23;20162;-85
2023/10/09 01:59:43;;;;;;;0.40;0.40;;;14.90;55.70;;;;;;6213059;23;20234;-85
2023/10/09 02:02:24;;;;;;;0.50;0.50;;;14.90;55.90;;;;;;6186811;23;20172;-85
2023/10/09 02:04:54;;;;;;;0.20;0.20;;;15.00;56.00;;;;;;6213027;23;20490;-84
2023/10/09 02:07:27;;;;;;;1.47;1.00;;;14.90;55.90;;;;;;6212566;23;20222;-83
2023/10/09 02:09:58;;;;;;;0.20;0.20;;;14.80;55.60;;;;;;6212032;23;20174;-83
2023/10/09 02:12:33;;;;;;;0.20;0.20;;;14.80;55.70;;;;;;6213617;23;20205;-84
2023/10/09 02:15:08;;;;;;;0.30;0.30;;;14.80;55.70;;;;;;6213650;23;20250;-84
2023/10/09 02:17:51;;;;;;;0.20;0.20;;;14.80;55.60;;;;;;6212773;23;20186;-84
2023/10/09 02:20:28;;;;;;;0.30;0.30;;;14.80;55.80;;;;;;6211955;23;20516;-86
2023/10/09 02:22:57;;;;;;;0.50;0.50;;;14.80;55.70;;;;;;6162577;23;20190;-85
2023/10/09 02:25:34;;;;;;;0.77;0.63;;;14.70;55.70;;;;;;6185909;23;20242;-85
2023/10/09 02:28:07;;;;;;;0.20;0.20;;;14.70;55.80;;;;;;6212377;23;20569;-85
2023/10/09 02:30:35;;;;;;;0.40;0.40;;;14.70;56.00;;;;;;6211101;23;20162;-85
2023/10/09 02:33:09;;;;;;;0.20;0.20;;;14.70;56.10;;;;;;6212758;23;20163;-85
2023/10/09 02:35:39;;;;;;;1.07;0.63;;;14.70;56.10;;;;;;6212125;23;20175;-84
2023/10/09 02:38:10;;;;;;;0.30;0.30;;;14.70;56.10;;;;;;6212532;23;20202;-84
2023/10/09 02:41:17;;;;;;;0.50;0.50;;;14.70;56.20;;;;;;6212130;23;20199;-85
2023/10/09 02:43:44;;;;;;;0.80;0.73;;;14.60;56.30;;;;;;6212260;23;20569;-84
2023/10/09 02:46:17;;;;;;;0.20;0.20;;;14.60;56.20;;;;;;6212329;23;20170;-84
2023/10/09 02:48:50;;;;;;;0.20;0.20;;;14.60;56.30;;;;;;6213024;23;20211;-85
2023/10/09 02:51:32;;;;;;;1.80;0.40;;;14.50;56.40;;;;;;6212853;23;20159;-84
2023/10/09 02:54:17;;;;;;;0.20;0.20;;;14.50;56.50;;;;;;6211291;23;20633;-83
2023/10/09 02:56:56;;;;;;;0.20;0.20;;;14.50;56.70;;;;;;6212168;23;20240;-86
2023/10/09 02:59:25;;;;;;;0.33;0.33;;;14.50;56.70;;;;;;6212983;23;20167;-86
2023/10/09 03:01:53;;;;;;;0.30;0.30;;;14.40;56.70;;;;;;6212428;23;20620;-85
2023/10/09 03:04:23;;;;;;;0.27;0.27;;;14.40;56.90;;;;;;6211749;23;20175;-86
2023/10/09 03:06:57;;;;;;;0.20;0.20;;;14.40;56.80;;;;;;6213224;23;20594;-84
2023/10/09 03:09:31;;;;;;;0.20;0.20;;;14.40;57.00;;;;;;6212871;23;20539;-86
2023/10/09 03:12:05;;;;;;;0.20;0.20;;;14.40;57.00;;;;;;6211227;23;20233;-83
2023/10/09 03:14:38;;;;;;;0.70;0.70;;;14.40;57.10;;;;;;6212348;23;20167;-86
2023/10/09 03:17:11;;;;;;;0.40;0.40;;;14.30;57.20;;;;;;6211368;23;20163;-85
2023/10/09 03:19:43;;;;;;;0.30;0.30;;;14.30;57.40;;;;;;6187878;23;20640;-86
2023/10/09 03:22:12;;;;;;;0.20;0.20;;;14.30;57.40;;;;;;6211990;23;20174;-85
2023/10/09 03:24:44;;;;;;;0.23;0.23;;;14.30;57.50;;;;;;6212473;23;20509;-85
2023/10/09 03:27:20;;;;;;;0.33;0.33;;;14.30;57.50;;;;;;6212246;23;20190;-85
2023/10/09 03:29:53;;;;;;;0.20;0.20;;;14.30;57.50;;;;;;6211772;23;20160;-86
2023/10/09 03:32:24;;;;;;;0.23;0.23;;;14.30;57.50;;;;;;6211394;23;20174;-86
2023/10/09 03:34:52;;;;;;;0.30;0.30;;;14.30;57.50;;;;;;6186935;23;20185;-85
2023/10/09 03:37:33;;;;;;;0.20;0.20;;;14.30;57.70;;;;;;6212058;23;20170;-85
2023/10/09 03:40:06;;;;;;;0.20;0.20;;;14.40;57.70;;;;;;6186534;23;20198;-84
2023/10/09 03:42:42;;;;;;;0.20;0.20;;;14.40;57.70;;;;;;6187453;23;20159;-85
2023/10/09 03:45:18;;;;;;;0.30;0.30;;;14.40;57.60;;;;;;6212803;23;20159;-86
2023/10/09 03:47:53;;;;;;;0.60;0.60;;;14.40;57.60;;;;;;6185125;23;20482;-85
2023/10/09 03:50:26;;;;;;;0.73;0.60;;;14.40;57.50;;;;;;6211970;23;20176;-86
2023/10/09 03:52:57;;;;;;;0.27;0.27;;;14.40;57.50;;;;;;6210811;23;20167;-85
2023/10/09 03:55:27;;;;;;;0.20;0.20;;;14.40;57.40;;;;;;6211095;23;20167;-84
2023/10/09 03:57:59;;;;;;;0.30;0.30;;;14.40;57.50;;;;;;6211174;23;20238;-86
2023/10/09 04:00:31;;;;;;;0.20;0.20;;;14.40;57.40;;;;;;6210408;23;20177;-86
2023/10/09 04:03:01;;;;;;;0.20;0.20;;;14.40;57.20;;;;;;6186479;23;20269;-85
2023/10/09 04:05:32;;;;;;;0.20;0.20;;;14.30;57.20;;;;;;6213241;23;20206;-84
2023/10/09 04:08:02;;;;;;;0.87;0.87;;;14.30;57.00;;;;;;6212291;23;20540;-84
2023/10/09 04:10:43;;;;;;;1.00;0.90;;;14.30;57.10;;;;;;6209782;23;20171;-85
2023/10/09 04:13:18;;;;;;;1.10;1.00;;;14.30;57.10;;;;;;6188746;23;20178;-86
2023/10/09 04:15:49;;;;;;;0.40;0.40;;;14.30;57.10;;;;;;6209084;23;20166;-85
2023/10/09 04:18:28;;;;;;;0.63;0.63;;;14.30;57.00;;;;;;6212035;23;20210;-86
2023/10/09 04:27:02;;;;;;;0.20;0.20;;;14.30;56.80;;;;;;6209416;23;20298;-85
2023/10/09 04:29:38;;;;;;;0.20;0.20;;;14.30;56.70;;;;;;6210578;23;20197;-86
2023/10/09 04:32:15;;;;;;;0.20;0.20;;;14.30;56.60;;;;;;6212602;23;20187;-85
2023/10/09 05:22:53;;;;;;;0.20;0.20;;;14.50;55.70;;;;;;6148680;23;20651;-86
2023/10/09 05:25:53;;;;;;;0.40;0.40;;;14.60;55.80;;;;;;6183352;23;20168;-86
2023/10/09 05:28:25;;;;;;;0.20;0.20;;;14.70;55.70;;;;;;6183080;23;20199;-84
2023/10/09 05:31:02;;;;;;;0.20;0.20;;;14.60;55.70;;;;;;6157258;23;20174;-86
2023/10/09 05:33:33;;;;;;;0.83;0.83;;;14.70;55.00;;;;;;6183185;23;20173;-85
2023/10/09 05:36:17;;;;;;;0.40;0.40;;;14.80;55.00;;;;;;6179167;23;20198;-84
2023/10/09 05:38:58;;;;;;;1.80;0.97;;;14.80;55.00;;;;;;6184208;23;20167;-84
2023/10/09 05:41:47;;;;;;;0.40;0.40;;;14.80;54.60;;;;;;6185233;23;20359;-86
2023/10/09 05:49:54;;;;;;;0.20;0.20;;;14.90;53.90;;;;;;6183449;23;20199;-87
2023/10/09 05:55:48;;;;;;;0.20;0.20;;;15.00;53.90;;;;;;6184014;23;20236;-86
2023/10/09 06:04:04;;;;;;;0.20;0.20;;;15.10;53.00;;;;;;6130542;23;20183;-87
2023/10/09 06:06:42;;;;;;;0.53;0.53;;;15.10;52.80;;;;;;6182831;23;20160;-85
2023/10/09 06:09:49;;;;;;;0.20;0.20;;;15.20;53.20;;;;;;6184338;23;20641;-86
2023/10/09 06:12:49;;;;;;;0.20;0.20;;;15.20;53.00;;;;;;6183924;23;20649;-86
2023/10/09 06:15:51;;;;;;;0.67;0.67;;;15.30;53.10;;;;;;6184178;23;20168;-86
2023/10/09 06:21:19;;;;;;;0.20;0.20;;;15.40;52.50;;;;;;6179046;23;20515;-85
2023/10/09 06:24:09;;;;;;;0.47;0.43;;;15.40;52.10;;;;;;6182574;23;20191;-84
2023/10/09 06:26:41;;;;;;;0.30;0.30;;;15.40;51.70;;;;;;6183467;23;20218;-85
2023/10/09 06:29:17;;;;;;;0.33;0.33;;;15.50;51.80;;;;;;6185016;23;20180;-89
2023/10/09 06:31:59;;;;;;;0.20;0.20;;;15.50;50.90;;;;;;6180707;23;20557;-85
2023/10/09 06:34:32;;;;;;;0.47;0.47;;;15.50;50.60;;;;;;6182570;23;20522;-86
2023/10/09 06:37:17;;;;;;;0.20;0.20;;;15.50;50.30;;;;;;6183127;23;20171;-85
2023/10/09 06:42:34;;;;;;;0.20;0.20;;;15.50;50.10;;;;;;6119107;23;20232;-87
2023/10/09 06:45:06;;;;;;;0.20;0.20;;;15.60;50.40;;;;;;6182844;23;20175;-85
2023/10/09 06:47:41;;;;;;;0.63;0.60;;;15.60;49.90;;;;;;6180448;23;20661;-88
2023/10/09 06:50:55;;;;;;;0.20;0.20;;;15.60;50.00;;;;;;6179512;23;20198;-82
2023/10/09 06:53:25;;;;;;;0.30;0.30;;;15.60;49.40;;;;;;6182344;23;20191;-83
2023/10/09 06:56:05;;;;;;;0.40;0.40;;;15.60;49.90;;;;;;6182788;23;20160;-87
2023/10/09 06:58:42;;;;;;;0.30;0.30;;;15.70;49.80;;;;;;6183796;23;20591;-85
2023/10/09 07:01:39;;;;;;;0.37;0.37;;;15.70;49.90;;;;;;6182209;23;20226;-86
2023/10/09 07:04:18;;;;;;;0.70;0.60;;;15.80;49.80;;;;;;6184373;23;20179;-87
2023/10/09 07:06:51;;;;;;;0.47;0.47;;;15.80;49.90;;;;;;6183349;23;20164;-85
2023/10/09 07:09:20;;;;;;;0.40;0.40;;;15.80;49.70;;;;;;6183433;23;20187;-86
2023/10/09 07:12:09;;;;;;;0.20;0.20;;;15.80;49.60;;;;;;6182802;23;20198;-84
2023/10/09 07:20:15;;;;;;;0.20;0.20;;;15.90;49.90;;;;;;6183036;23;20485;-86
2023/10/09 07:22:52;;;;;;;0.50;0.27;;;16.00;50.00;;;;;;6180922;23;20650;-86
2023/10/09 07:28:18;;;;;;;0.30;0.30;;;16.10;49.40;;;;;;6177359;23;20183;-87
2023/10/09 07:30:47;;;;;;;0.20;0.20;;;16.10;49.40;;;;;;6181470;23;20524;-89
2023/10/09 07:33:30;;;;;;;0.20;0.20;;;16.10;48.80;;;;;;6182423;23;20183;-85
2023/10/09 07:36:06;;;;;;;0.43;0.43;;;16.20;49.20;;;;;;6158161;23;20621;-85
2023/10/09 07:38:36;;;;;;;0.20;0.20;;;16.20;48.70;;;;;;6184476;23;20170;-87
2023/10/09 07:43:50;;;;;;;0.20;0.20;;;16.20;47.60;;;;;;6159126;23;20305;-87
2023/10/09 07:46:32;;;;;;;0.60;0.60;;;16.20;48.10;;;;;;6183554;23;20235;-87
2023/10/09 07:49:09;;;;;;;0.30;0.30;;;16.30;48.30;;;;;;6180621;23;20167;-86
2023/10/09 07:51:43;;;;;;;0.30;0.30;;;16.30;47.80;;;;;;6183392;23;20212;-86
2023/10/09 07:54:15;;;;;;;0.30;0.30;;;16.30;47.80;;;;;;6182817;23;20160;-86
2023/10/09 07:56:46;;;;;;;0.20;0.20;;;16.40;47.80;;;;;;6133590;23;20168;-87
2023/10/09 07:59:18;;;;;;;0.20;0.20;;;16.50;48.00;;;;;;6184184;23;20168;-89
2023/10/09 08:01:54;;;;;;;0.20;0.20;;;16.50;47.20;;;;;;6183295;23;20186;-87
2023/10/09 08:04:37;;;;;;;0.30;0.30;;;16.60;47.60;;;;;;6184058;23;20172;-87
2023/10/09 08:07:07;;;;;;;0.30;0.30;;;16.60;47.50;;;;;;6184193;23;20178;-85
2023/10/09 08:15:34;;;;;;;0.20;0.20;;;16.70;46.90;;;;;;6185076;23;20174;-88
2023/10/09 08:18:09;;;;;;;0.53;0.53;;;16.70;47.10;;;;;;6183127;23;20168;-89
2023/10/09 08:21:19;;;;;;;0.30;0.30;;;16.70;47.10;;;;;;6189387;23;20168;-88
2023/10/09 08:23:49;;;;;;;0.20;0.20;;;16.70;46.60;;;;;;6186273;23;20195;-88
2023/10/09 08:31:56;;;;;;;0.30;0.30;;;16.90;46.30;;;;;;6185522;23;20190;-86
2023/10/09 08:34:25;;;;;;;1.50;0.77;;;17.00;46.40;;;;;;6186867;23;20152;-86
2023/10/09 08:36:57;;;;;;;0.20;0.20;;;16.90;46.00;;;;;;6185933;23;20168;-85
2023/10/09 08:39:27;;;;;;;0.47;0.47;;;17.10;46.50;;;;;;6184265;23;20192;-86
2023/10/09 08:41:57;;;;;;;0.20;0.20;;;17.10;46.50;;;;;;6185006;23;20168;-88
2023/10/09 08:44:31;;;;;;;0.20;0.20;;;17.10;45.70;;;;;;6187522;23;20227;-91
2023/10/09 08:47:01;;;;;;;0.20;0.20;;;17.10;45.90;;;;;;6187474;23;20688;-89
2023/10/09 08:49:33;;;;;;;0.20;0.20;;;17.20;45.50;;;;;;6185943;23;20168;-88
2023/10/09 08:52:04;;;;;;;0.20;0.20;;;17.20;45.70;;;;;;6183225;23;20408;-88
2023/10/09 08:54:35;;;;;;;0.27;0.27;;;17.40;46.30;;;;;;6186211;23;20255;-88
2023/10/09 08:57:09;;;;;;;0.40;0.20;;;17.30;45.50;;;;;;6186822;23;20168;-89
2023/10/09 08:59:44;;;;;;;0.20;0.20;;;17.40;45.90;;;;;;6185868;23;20164;-86
2023/10/09 09:02:15;;;;;;;0.20;0.20;;;17.40;45.90;;;;;;6184506;23;20171;-86
2023/10/09 09:04:45;;;;;;;0.20;0.20;;;17.40;45.50;;;;;;6187013;23;20164;-87
2023/10/09 09:07:31;;;;;;;0.30;0.30;;;17.50;45.70;;;;;;6185624;23;20163;-89
2023/10/09 09:10:04;;;;;;;0.30;0.30;;;17.50;45.80;;;;;;6185878;23;20298;-87
2023/10/09 09:12:37;;;;;;;0.47;0.33;;;17.60;46.10;;;;;;6186143;23;20160;-87
2023/10/09 09:15:26;;;;;;;0.30;0.30;;;17.50;45.20;;;;;;6186765;23;20163;-85
2023/10/09 09:18:06;;;;;;;0.20;0.20;;;17.50;44.80;;;;;;6185733;23;20168;-87
2023/10/09 09:20:39;;;;;;;0.20;0.20;;;17.60;45.50;;;;;;6185870;23;20160;-87
2023/10/09 09:23:12;;;;;;;0.33;0.33;;;17.70;45.60;;;;;;6184282;23;20657;-89
2023/10/09 09:25:47;;;;;;;0.10;0.10;;;17.70;45.10;;;;;;6184310;23;20171;-88
2023/10/09 09:28:21;;;;;;;0.20;0.20;;;17.70;44.90;;;;;;6185265;23;20175;-89
2023/10/09 09:30:55;;;;;;;0.20;0.20;;;17.80;45.10;;;;;;6183457;23;20214;-89
2023/10/09 09:33:39;;;;;;;0.20;0.20;;;17.80;45.10;;;;;;6185318;23;20660;-88
2023/10/09 09:36:11;;;;;;;0.37;0.37;;;17.90;44.50;;;;;;6185219;23;20812;-86
2023/10/09 09:38:47;;;;;;;0.20;0.20;;;17.90;44.80;;;;;;6184490;23;20545;-86
2023/10/09 09:41:24;;;;;;;0.30;0.30;;;17.80;44.60;;;;;;6185058;23;20160;-88
2023/10/09 09:44:00;;;;;;;0.20;0.20;;;17.80;43.90;;;;;;6184467;23;20175;-85
2023/10/09 09:46:33;;;;;;;0.30;0.27;;;17.90;44.50;;;;;;6183119;23;20258;-85
2023/10/09 09:49:05;;;;;;;0.20;0.20;;;18.00;44.80;;;;;;6182543;23;20163;-91
2023/10/09 09:51:54;;;;;;;0.67;0.40;;;18.10;45.10;;;;;;6182727;23;20224;-87
2023/10/09 09:54:39;;;;;;;2.23;0.30;;;18.10;44.70;;;;;;6184949;23;20176;-87
2023/10/09 09:57:25;;;;;;;0.23;0.23;;;18.10;43.80;;;;;;6158705;23;20195;-87
2023/10/09 09:59:58;;;;;;;0.20;0.20;;;18.20;43.90;;;;;;6184811;23;20171;-85
2023/10/09 10:02:44;;;;;;;0.20;0.20;;;18.20;43.80;;;;;;6181644;23;20156;-87
2023/10/09 10:05:30;;;;;;;0.63;0.63;;;18.30;43.80;;;;;;6182479;23;20171;-87
2023/10/09 10:08:00;;;;;;;0.20;0.20;;;18.30;43.30;;;;;;6157443;23;20164;-86
2023/10/09 10:10:57;;;;;;;0.20;0.20;;;18.40;43.30;;;;;;6182573;23;20172;-86
2023/10/09 10:14:06;;;;;;;1.50;0.43;;;18.40;42.90;;;;;;6183673;23;20171;-88
2023/10/09 10:17:17;;;;;;;0.30;0.30;;;18.40;43.10;;;;;;6182700;23;20164;-89
2023/10/09 10:23:19;;;;;;;0.20;0.20;;;18.40;42.90;;;;;;6168609;23;20649;-88
2023/10/09 10:25:59;;;;;;;0.77;0.70;;;18.50;42.90;;;;;;6214944;23;20202;-87
2023/10/09 10:28:38;;;;;;;0.20;0.20;;;18.50;43.20;;;;;;6215709;23;20217;-89
2023/10/09 10:31:09;;;;;;;0.40;0.40;;;18.60;43.20;;;;;;6213432;23;20201;-87
2023/10/09 10:34:10;;;;;;;0.10;0.10;;;18.60;42.30;;;;;;6214125;23;20217;-86
2023/10/09 10:36:43;;;;;;;0.20;0.20;;;18.60;42.50;;;;;;6212304;23;20167;-89
2023/10/09 10:39:21;;;;;;;0.20;0.20;;;18.70;42.30;;;;;;6213643;23;20063;-87
2023/10/09 10:41:57;;;;;;;1.03;0.30;;;18.70;42.60;;;;;;6212174;23;20170;-88
2023/10/09 10:44:38;;;;;;;0.20;0.20;;;18.80;42.50;;;;;;6214079;23;20163;-87
2023/10/09 10:47:22;;;;;;;0.53;0.30;;;18.80;42.20;;;;;;6213594;23;20262;-87
2023/10/09 10:49:57;;;;;;;0.27;0.27;;;18.90;42.30;;;;;;6216687;23;20163;-86
2023/10/09 10:52:42;;;;;;;0.57;0.53;;;18.90;42.30;;;;;;6214755;23;20182;-85
2023/10/09 10:55:48;;;;;;;0.47;0.47;;;18.90;41.60;;;;;;6214980;23;20170;-86
2023/10/09 10:58:25;;;;;;;0.20;0.20;;;18.90;41.30;;;;;;6213930;23;20167;-86
2023/10/09 11:01:11;;;;;;;0.20;0.20;;;18.90;41.40;;;;;;6215187;23;20155;-84
2023/10/09 11:06:36;;;;;;;0.20;0.20;;;19.00;42.00;;;;;;6234458;23;20159;-84
2023/10/09 11:09:22;;;;;;;0.33;0.33;;;19.10;42.30;;;;;;6234974;23;20191;-86
2023/10/09 11:12:22;;;;;;;1.43;1.33;;;19.00;41.20;;;;;;6213191;23;20186;-86
2023/10/09 11:15:08;;;;;;;0.20;0.20;;;19.10;41.90;;;;;;6239188;23;20167;-87
2023/10/09 11:17:41;;;;;;;0.50;0.50;;;19.20;42.10;;;;;;6216717;23;20183;-85
2023/10/09 11:20:26;;;;;;;0.47;0.47;;;19.20;42.10;;;;;;6237192;23;20214;-86
2023/10/09 11:23:14;;;;;;;0.30;0.30;;;19.20;42.40;;;;;;6236772;23;20202;-86
2023/10/09 11:25:52;;;;;;;0.27;0.27;;;19.30;42.40;;;;;;6217560;23;20167;-87
2023/10/09 11:28:42;;;;;;;0.30;0.30;;;19.20;41.70;;;;;;6216093;23;20171;-85
2023/10/09 11:31:11;;;;;;;0.28;0.28;;;19.30;42.10;;;;;;6215197;23;20202;-86
2023/10/09 11:33:48;;;;;;;0.20;0.20;;;19.40;42.40;;;;;;6215449;23;20207;-87
2023/10/09 11:36:16;;;;;;;0.37;0.37;;;19.30;41.90;;;;;;6214467;23;20162;-84
2023/10/09 11:38:49;;;;;;;0.40;0.40;;;19.30;42.20;;;;;;6213792;23;20167;-86
2023/10/09 11:41:23;;;;;;;0.27;0.27;;;19.30;42.30;;;;;;6213174;23;20215;-87
2023/10/09 11:43:53;;;;;;;0.40;0.40;;;19.40;42.10;;;;;;6186545;23;20152;-87
2023/10/09 11:46:47;;;;;;;0.20;0.20;;;19.50;42.30;;;;;;6213807;23;20199;-85
2023/10/09 11:49:40;;;;;;;15.40;1.03;;;19.60;42.60;;;;;;6185901;23;20175;-86
2023/10/09 11:54:56;;;;;;;0.50;0.50;;;19.70;42.60;;;;;;6212885;23;20531;-86
2023/10/09 11:57:30;;;;;;;0.40;0.40;;;19.80;42.70;;;;;;6187317;23;20175;-86
2023/10/09 12:00:00;;;;;;;0.20;0.20;;;19.80;42.60;;;;;;6213473;23;20167;-87
2023/10/09 12:02:31;;;;;;;0.20;0.20;;;19.80;41.90;;;;;;6213242;23;20179;-86
2023/10/09 12:05:01;;;;;;;0.30;0.30;;;19.80;42.10;;;;;;6211190;23;20159;-86
2023/10/09 12:07:30;;;;;;;0.32;0.28;;;19.80;42.10;;;;;;6186221;23;20687;-84
2023/10/09 12:10:00;;;;;;;0.30;0.30;;;19.80;42.10;;;;;;6186937;23;20536;-85
2023/10/09 12:12:29;;;;;;;1.17;1.08;;;19.80;42.00;;;;;;6186533;23;20515;-85
2023/10/09 12:14:58;;;;;;;0.60;0.60;;;19.90;42.50;;;;;;6213349;23;20174;-86
2023/10/09 12:17:26;;;;;;;0.50;0.22;;;19.90;42.60;;;;;;6213467;23;20557;-85
2023/10/09 12:19:56;;;;;;;0.45;0.45;;;20.00;42.30;;;;;;6213018;23;20178;-89
2023/10/09 12:22:27;;;;;;;0.20;0.20;;;20.00;42.30;;;;;;6214243;23;20496;-87
2023/10/09 12:24:57;;;;;;;0.22;0.22;;;20.00;42.30;;;;;;6213782;23;20534;-85
2023/10/09 12:27:28;;;;;;;0.20;0.20;;;20.00;42.30;;;;;;6213137;23;20254;-87
2023/10/09 12:29:59;;;;;;;0.40;0.32;;;20.00;42.40;;;;;;6213351;23;20645;-87
2023/10/09 12:32:28;;;;;;;0.32;0.25;;;20.10;42.70;;;;;;6209819;23;20411;-86
2023/10/09 12:34:57;;;;;;;0.20;0.20;;;20.10;42.60;;;;;;6186801;23;20171;-85
2023/10/09 12:37:28;;;;;;;0.57;0.50;;;20.20;42.60;;;;;;6212992;23;20213;-85
2023/10/09 12:39:57;;;;;;;0.32;0.32;;;20.20;42.40;;;;;;6212379;23;20190;-87
2023/10/09 12:42:28;;;;;;;0.38;0.38;;;20.30;42.10;;;;;;6212673;23;20419;-89
2023/10/09 12:44:57;;;;;;;0.30;0.30;;;20.30;42.00;;;;;;6213042;23;20198;-87
2023/10/09 12:47:26;;;;;;;0.30;0.30;;;20.40;42.20;;;;;;6212905;23;20202;-87
2023/10/09 12:49:56;;;;;;;0.20;0.20;;;20.40;41.80;;;;;;6188986;23;20167;-86
2023/10/09 12:52:29;;;;;;;0.20;0.20;;;20.30;41.70;;;;;;6188569;23;20195;-85
2023/10/09 12:55:00;;;;;;;0.22;0.22;;;20.40;42.10;;;;;;6215521;23;20165;-87
2023/10/09 12:57:28;;;;;;;1.20;0.50;;;20.40;41.70;;;;;;6214268;23;20246;-87
2023/10/09 12:59:58;;;;;;;0.13;0.13;;;20.50;41.80;;;;;;6215729;23;20190;-88
2023/10/09 13:02:29;;;;;;;0.20;0.20;;;20.60;41.60;;;;;;6212868;23;20194;-85
2023/10/09 13:05:00;;;;;;;1.30;0.77;;;20.60;41.40;;;;;;6214993;23;20166;-85
2023/10/09 13:07:30;;;;;;;0.13;0.13;;;20.60;41.00;;;;;;6213692;23;20159;-84
2023/10/09 13:10:12;;;;;;;0.13;0.13;;;20.60;41.30;;;;;;6186962;23;20225;-85
2023/10/09 13:12:43;;;;;;;0.20;0.20;;;20.60;41.40;;;;;;6212978;23;20214;-86
2023/10/09 13:15:13;;;;;;;0.68;0.38;;;20.60;41.20;;;;;;6214674;23;20203;-88
2023/10/09 13:17:43;;;;;;;0.30;0.30;;;20.60;41.20;;;;;;6161761;23;20354;-85
2023/10/09 13:20:13;;;;;;;0.40;0.40;;;20.60;41.50;;;;;;6213915;23;20177;-86
2023/10/09 13:22:44;;;;;;;0.30;0.30;;;20.50;40.80;;;;;;6211496;23;20199;-84
2023/10/09 13:25:18;;;;;;;0.50;0.40;;;20.50;41.30;;;;;;6213056;23;20159;-87
2023/10/09 13:47:19;;;;;;;0.20;0.20;;;20.30;41.60;;;;;;6183637;23;20502;-84
2023/10/09 13:50:33;;;;;;;0.20;0.20;;;20.30;41.60;;;;;;6181395;23;20160;-87
2023/10/09 13:53:07;;;;;;;0.20;0.20;;;20.30;41.40;;;;;;6183052;23;20203;-86
2023/10/09 13:55:43;;;;;;;0.20;0.20;;;20.30;41.20;;;;;;6184963;23;20156;-87
2023/10/09 13:58:14;;;;;;;0.10;0.10;;;20.30;41.30;;;;;;6184620;23;20167;-89
2023/10/09 14:00:46;;;;;;;0.38;0.30;;;20.30;41.30;;;;;;6183757;23;20156;-86
2023/10/09 14:03:19;;;;;;;0.20;0.20;;;20.30;41.30;;;;;;6180189;23;20160;-87
2023/10/09 14:05:56;;;;;;;0.28;0.28;;;20.30;42.20;;;;;;6156544;23;20214;-84
2023/10/09 14:08:28;;;;;;;0.17;0.17;;;20.30;41.20;;;;;;6182258;23;20191;-87
2023/10/09 14:10:57;;;;;;;0.65;0.65;;;20.30;41.40;;;;;;6181790;23;20157;-84
2023/10/09 14:13:29;;;;;;;0.43;0.40;;;20.30;41.50;;;;;;6181379;23;20223;-86
2023/10/09 14:16:02;;;;;;;0.22;0.22;;;20.30;41.20;;;;;;6182442;23;20195;-85
2023/10/09 14:18:32;;;;;;;0.20;0.20;;;20.30;41.50;;;;;;6184361;23;20160;-88
2023/10/09 14:21:15;;;;;;;2.55;1.20;;;20.20;41.40;;;;;;6181300;23;20590;-86
2023/10/09 14:23:46;;;;;;;0.20;0.20;;;20.20;41.70;;;;;;6180649;23;20180;-86
2023/10/09 14:26:18;;;;;;;1.27;0.75;;;20.30;41.80;;;;;;6155705;23;20174;-87
2023/10/09 14:28:49;;;;;;;0.47;0.40;;;20.20;41.80;;;;;;6181849;23;20152;-87
2023/10/09 14:31:26;;;;;;;11.40;3.45;;;20.20;41.70;;;;;;6182462;23;20160;-86
2023/10/09 14:33:57;;;;;;;2.75;2.17;;;20.20;41.70;;;;;;6179985;23;20188;-87
2023/10/09 14:36:33;;;;;;;3.30;0.73;;;20.10;41.80;;;;;;6181966;23;20218;-84
2023/10/09 14:39:04;;;;;;;0.68;0.68;;;20.10;41.90;;;;;;6181632;23;20162;-83
2023/10/09 14:58:31;;;;;;;;;;;;;;;;;;;;;
2023/10/09 15:55:29;;;;;;;0.27;0.27;;;19.70;43.90;;;;;;6182669;23;20207;-83
2023/10/09 15:58:12;;;;;;;0.30;0.30;;;19.70;43.90;;;;;;6177267;23;20213;-86
2023/10/09 16:03:27;;;;;;;0.63;0.40;;;19.60;44.00;;;;;;6208883;22;20276;-85
2023/10/09 16:06:00;;;;;;;0.67;0.60;;;19.60;43.90;;;;;;6208889;23;20509;-82
2023/10/09 16:08:31;;;;;;;0.20;0.20;;;19.60;43.90;;;;;;6182580;23;20688;-86
2023/10/09 16:11:03;;;;;;;0.60;0.60;;;19.60;43.80;;;;;;6206667;23;20170;-87
2023/10/09 16:13:32;;;;;;;0.20;0.20;;;19.60;43.80;;;;;;6211544;23;20191;-86
2023/10/09 16:16:01;;;;;;;0.20;0.20;;;19.60;43.80;;;;;;6184223;23;20480;-87
2023/10/09 16:18:34;;;;;;;0.20;0.20;;;19.50;43.90;;;;;;6210725;23;20167;-86
2023/10/09 16:21:05;;;;;;;0.60;0.30;;;19.50;43.90;;;;;;6211438;23;20503;-84
2023/10/09 16:23:33;;;;;;;0.20;0.20;;;19.50;44.00;;;;;;6211774;23;20234;-84
2023/10/09 16:26:06;;;;;;;2.93;0.27;;;19.50;44.00;;;;;;6212118;23;20227;-85
2023/10/09 16:28:36;;;;;;;2.93;0.40;;;19.50;44.10;;;;;;6212984;23;20160;-87
2023/10/09 16:31:12;;;;;;;0.20;0.20;;;19.50;44.20;;;;;;6213268;23;20179;-87
2023/10/09 16:33:40;;;;;;;0.40;0.40;;;19.50;44.10;;;;;;6211462;23;20190;-88
2023/10/09 16:36:09;;;;;;;0.20;0.20;;;19.50;44.20;;;;;;6215140;23;20172;-87
2023/10/09 16:38:43;;;;;;;1.80;0.63;;;19.50;44.20;;;;;;6186321;23;20271;-87
2023/10/09 16:41:13;;;;;;;0.35;0.32;;;19.40;44.20;;;;;;6212203;23;20415;-87
2023/10/09 16:43:43;;;;;;;0.20;0.20;;;19.40;44.20;;;;;;6211550;23;20167;-86
2023/10/09 16:46:16;;;;;;;1.60;0.63;;;19.40;44.20;;;;;;6213676;23;20160;-87
2023/10/09 16:48:47;;;;;;;0.30;0.30;;;19.40;44.20;;;;;;6186229;23;20174;-86
2023/10/09 16:51:17;;;;;;;0.23;0.23;;;19.40;44.30;;;;;;6213462;23;20194;-87
2023/10/09 16:53:46;;;;;;;0.20;0.20;;;19.40;44.30;;;;;;6212299;23;20282;-85